Latest Weather Observations for Moss Vale

IDN60801

Issued at 9:05 pm EST Tuesday 22 July 2014 (issued every 30 minutes, with the page automatically refreshed every 10 minutes)

About weather observations | Map of weather stations | Latest weather observations for NSW | Other Formats
Station Details ID: 068239 Name: MOSS VALE AWS Lat: -34.53 Lon: 150.42 Height: 678.4 m
Data from the previous 72 hours. | See also: Recent months at Moss Vale
Date/Time
EST
Temp
°C
App
Temp
°C
Dew
Point
Rel
Hum
%
Delta-T
°C
Wind Press
QNH
hPa
Press
MSL
hPa
Rain
since 9 am
mm
Dir
 
Spd
km/h
Gust
km/h
Spd
kts
Gust
kts
22/09:00pm 5.3 3.7 4.7 96 0.3 ENE 2 6 1 3 1024.2 1025.0 0.0
22/08:30pm 5.6 3.3 4.9 95 0.3 E 6 7 3 4 1024.0 - 0.0
22/08:00pm 5.8 3.0 5.1 95 0.3 SE 9 9 5 5 1024.4 1025.2 0.0
22/07:30pm 6.7 4.1 6.1 96 0.3 E 9 11 5 6 1024.2 - 0.0
22/07:00pm 6.3 4.2 5.6 95 0.3 ESE 6 7 3 4 1023.9 1024.8 0.0
22/06:30pm 6.7 4.4 5.8 94 0.4 NE 7 9 4 5 1023.6 - 0.0
22/06:00pm 7.4 5.2 6.0 91 0.7 ENE 7 11 4 6 1023.3 1024.2 0.0
22/05:30pm 8.2 5.6 6.2 87 1.0 E 9 11 5 6 1023.0 - 0.0
22/05:00pm 9.3 6.8 6.4 82 1.4 E 9 11 5 6 1022.8 1023.6 0.0
22/04:30pm 10.0 6.3 6.5 79 1.7 ESE 15 19 8 10 1022.6 - 0.0
22/04:00pm 11.3 7.4 7.0 75 2.1 SE 17 19 9 10 1022.3 1023.2 0.0
22/03:30pm 13.1 10.6 5.0 58 3.9 SSE 7 15 4 8 1022.2 - 0.0
22/03:00pm 14.0 11.3 3.8 50 4.8 SW 7 13 4 7 1022.0 1022.9 0.0
22/02:30pm 13.6 10.5 3.7 51 4.7 WSW 9 17 5 9 1022.0 - 0.0
22/02:00pm 12.9 11.6 4.1 55 4.1 CALM 0 0 0 0 1022.1 1023.0 0.0
22/01:30pm 12.0 10.0 4.5 60 3.5 W 4 9 2 5 1022.2 - 0.0
22/01:00pm 12.6 10.4 5.1 60 3.6 ENE 6 9 3 5 1022.4 1023.3 0.0
22/12:30pm 11.7 9.6 6.6 71 2.5 SW 7 13 4 7 1022.9 - 0.0
22/12:00pm 10.3 8.3 6.3 76 1.9 WSW 6 9 3 5 1023.4 1024.3 0.0
22/11:30am 10.8 10.4 8.2 84 1.3 CALM 0 6 0 3 1023.8 - 0.0
22/11:00am 8.8 8.4 8.2 96 0.3 CALM 0 0 0 0 1024.3 1025.1 0.0
22/10:30am 7.7 7.1 7.3 97 0.2 CALM 0 0 0 0 1024.6 - 0.0
22/10:00am 5.1 3.9 4.4 95 0.3 CALM 0 0 0 0 1024.8 1025.7 0.0
22/09:30am 3.2 1.6 2.5 95 0.3 CALM 0 6 0 3 1024.9 - 0.0
22/09:00am 0.9 -1.1 0.2 95 0.3 CALM 0 0 0 0 1024.7 1025.6 0.2
22/08:30am -0.3 -3.2 -1.0 95 0.2 WSW 4 6 2 3 1024.6 - 0.2
22/08:00am -1.2 -3.4 -1.9 95 0.2 CALM 0 0 0 0 1024.4 1025.2 0.2
22/07:30am -1.4 -4.1 -2.1 95 0.2 WSW 2 7 1 4 1024.2 - 0.2
22/07:00am -1.7 -4.0 -2.4 95 0.2 CALM 0 0 0 0 1023.9 1024.8 0.2
22/06:30am -1.5 -3.8 -2.2 95 0.2 CALM 0 0 0 0 1023.6 - 0.2
22/06:00am -1.1 -3.3 -1.8 95 0.2 WSW 0 0 0 0 1023.6 1024.5 0.2
22/05:30am -0.9 -4.2 -1.6 95 0.2 ESE 6 9 3 5 1023.4 - 0.2
22/05:00am -0.9 -3.9 -1.6 95 0.2 E 4 7 2 4 1023.2 1024.0 0.2
22/04:30am -0.7 -2.9 -1.4 95 0.2 CALM 0 0 0 0 1023.0 - 0.2
22/04:00am -0.8 -3.0 -1.5 95 0.2 CALM 0 0 0 0 1023.0 1023.8 0.2
22/03:30am -0.3 -2.4 -1.0 95 0.2 CALM 0 0 0 0 1023.1 - 0.2
22/03:00am 0.4 -2.0 -0.3 95 0.3 WSW 2 6 1 3 1023.1 1023.9 0.2
22/02:30am 0.9 -2.2 0.2 95 0.3 WSW 6 7 3 4 1023.1 - 0.2
22/02:00am 0.8 -2.3 0.1 95 0.3 W 6 6 3 3 1023.2 1024.0 0.0
22/01:30am 0.6 -1.4 -0.3 94 0.3 CALM 0 0 0 0 1023.4 - 0.0
22/01:00am 0.9 -1.1 0.0 94 0.3 CALM 0 0 0 0 1023.6 1024.5 0.0
22/12:30am 1.2 -0.7 0.3 94 0.3 CALM 0 0 0 0 1023.9 - 0.0
22/12:00am 0.7 -1.3 0.0 95 0.3 N 0 0 0 0 1023.9 1024.8 0.0
 
Date/Time
EST
Temp
°C
App
Temp
°C
Dew
Point
Rel
Hum
%
Delta-T
°C
Wind Press
QNH
hPa
Press
MSL
hPa
Rain
since 9 am
mm
Dir
 
Spd
km/h
Gust
km/h
Spd
kts
Gust
kts
21/11:30pm 0.8 -1.9 0.1 95 0.3 N 4 6 2 3 1024.2 - 0.0
21/11:00pm 1.2 -1.1 0.6 96 0.2 N 2 7 1 4 1024.3 1025.1 0.0
21/10:30pm 1.8 0.0 1.2 96 0.2 CALM 0 2 0 1 1024.5 - 0.0
21/10:00pm 3.3 1.8 2.9 97 0.2 CALM 0 0 0 0 1024.5 1025.4 0.0
21/09:30pm 3.2 1.6 2.5 95 0.3 CALM 0 0 0 0 1024.4 - 0.0
21/09:00pm 4.3 2.9 3.6 95 0.3 CALM 0 0 0 0 1024.4 1025.2 0.0
21/08:30pm 5.2 3.2 4.5 95 0.3 ENE 4 6 2 3 1024.4 - 0.0
21/08:00pm 5.4 3.1 4.7 95 0.3 ENE 6 6 3 3 1024.3 1025.1 0.0
21/07:30pm 5.9 3.6 5.0 94 0.4 E 6 6 3 3 1024.3 - 0.0
21/07:00pm 6.5 5.1 5.5 93 0.5 ENE 2 6 1 3 1024.0 1024.9 0.0
21/06:30pm 6.7 4.4 5.5 92 0.6 ENE 7 9 4 5 1023.8 - 0.0
21/06:00pm 7.2 4.9 5.7 90 0.7 E 7 11 4 6 1023.6 1024.5 0.0
21/05:30pm 7.5 4.8 5.6 88 0.9 E 9 13 5 7 1023.4 - 0.0
21/05:00pm 8.4 5.4 5.9 84 1.2 NE 11 15 6 8 1023.4 1024.3 0.0
21/04:30pm 9.4 6.0 5.8 78 1.7 ENE 13 17 7 9 1023.2 - 0.0
21/04:00pm 10.5 7.1 4.0 64 3.0 NNE 11 13 6 7 1023.2 1024.0 0.0
21/03:30pm 11.2 8.1 3.5 59 3.5 NNE 9 15 5 8 1023.0 - 0.0
21/03:00pm 11.1 8.1 3.9 61 3.3 ENE 9 13 5 7 1023.1 1023.9 0.0
21/02:30pm 12.0 7.9 4.5 60 3.5 NE 15 20 8 11 1023.1 - 0.0
21/02:00pm 12.2 8.5 4.4 59 3.7 ENE 13 20 7 11 1023.0 1023.8 0.0
21/01:30pm 11.4 7.6 3.7 59 3.6 N 13 19 7 10 1023.2 - 0.0
21/01:00pm 11.5 7.3 4.0 60 3.5 NNE 15 20 8 11 1023.6 1024.5 0.0
21/12:30pm 11.1 7.3 4.1 62 3.3 NE 13 19 7 10 1023.9 - 0.0
21/12:00pm 10.7 8.0 5.5 70 2.5 ENE 9 15 5 8 1024.6 1025.5 0.0
21/11:30am 10.1 7.9 5.3 72 2.3 E 6 9 3 5 1025.1 - 0.0
21/11:00am 9.2 7.9 5.9 80 1.6 ENE 2 9 1 5 1025.6 1026.5 0.0
21/10:30am 7.2 5.0 5.5 89 0.8 WNW 6 7 3 4 1026.0 - 0.0
21/10:00am 5.7 4.6 5.0 95 0.3 CALM 0 0 0 0 1026.3 1027.2 0.0
21/09:30am 3.4 1.8 2.7 95 0.3 CALM 0 0 0 0 1026.3 - 0.0
21/09:00am 1.0 -0.9 0.3 95 0.3 CALM 0 0 0 0 1026.2 1027.1 0.2
21/08:30am -1.2 -3.4 -1.9 95 0.2 CALM 0 0 0 0 1026.3 - 0.2
21/08:00am -2.0 -4.3 -2.7 95 0.1 CALM 0 0 0 0 1026.2 1027.1 0.0
21/07:30am -2.6 -5.0 -3.3 95 0.1 CALM 0 0 0 0 1026.0 - 0.0
21/07:00am -2.5 -4.9 -3.2 95 0.1 CALM 0 0 0 0 1026.0 1026.9 0.0
21/06:30am -2.6 -5.0 -3.3 95 0.1 CALM 0 0 0 0 1026.0 - 0.0
21/06:00am -3.1 -5.6 -3.8 95 0.1 CALM 0 0 0 0 1025.9 1026.8 0.0
21/05:30am -2.8 -5.2 -3.5 95 0.1 CALM 0 0 0 0 1025.6 - 0.0
21/05:00am -2.2 -4.6 -2.9 95 0.1 CALM 0 0 0 0 1025.6 1026.5 0.0
21/04:30am -2.4 -4.8 -3.1 95 0.1 CALM 0 0 0 0 1025.6 - 0.0
21/04:00am -2.8 -5.2 -3.5 95 0.1 CALM 0 0 0 0 1025.3 1026.2 0.0
21/03:30am -2.6 -6.3 -3.3 95 0.1 WNW 7 9 4 5 1025.2 - 0.0
21/03:00am -2.0 -4.3 -2.7 95 0.1 CALM 0 0 0 0 1025.3 1026.2 0.0
21/02:30am -1.8 -5.3 -2.5 95 0.2 SW 6 7 3 4 1025.4 - 0.0
21/02:00am -1.9 -5.6 -2.6 95 0.2 WSW 7 9 4 5 1025.6 1026.5 0.0
21/01:30am -1.5 -3.8 -2.2 95 0.2 CALM 0 2 0 1 1025.6 - 0.0
21/01:00am -0.8 -3.0 -1.5 95 0.2 CALM 0 0 0 0 1025.8 1026.7 0.0
21/12:30am -0.4 -2.9 -1.1 95 0.2 WNW 2 6 1 3 1025.8 - 0.0
21/12:00am -0.5 -3.4 -1.1 96 0.2 WNW 4 6 2 3 1025.8 1026.7 0.0
 
Date/Time
EST
Temp
°C
App
Temp
°C
Dew
Point
Rel
Hum
%
Delta-T
°C
Wind Press
QNH
hPa
Press
MSL
hPa
Rain
since 9 am
mm
Dir
 
Spd
km/h
Gust
km/h
Spd
kts
Gust
kts
20/11:30pm -0.2 -3.1 -0.8 96 0.2 N 4 9 2 5 1026.0 - 0.0
20/11:00pm 2.0 0.2 1.4 96 0.2 CALM 0 0 0 0 1026.2 1027.1 0.0
20/10:30pm 1.1 -1.2 0.5 96 0.2 N 2 7 1 4 1026.3 - 0.0
20/10:00pm 1.6 -1.5 1.2 97 0.2 NNE 7 7 4 4 1026.2 1027.1 0.0
20/09:30pm 1.7 -1.8 1.3 97 0.2 NE 9 9 5 5 1026.2 - 0.0
20/09:00pm 0.3 -2.2 -0.8 92 0.4 E 2 9 1 5 1026.3 1027.2 0.0
20/08:30pm 3.3 1.7 2.4 94 0.4 CALM 0 0 0 0 1026.3 - 0.0
20/08:00pm 3.0 1.3 2.0 93 0.4 CALM 0 0 0 0 1026.2 1027.1 0.0
20/07:30pm 3.6 1.2 2.1 90 0.6 NE 4 6 2 3 1026.1 - 0.0
20/07:00pm 4.9 2.1 3.2 89 0.7 ESE 7 9 4 5 1025.9 1026.8 0.0
20/06:30pm 5.3 2.1 3.0 85 1.0 ESE 9 9 5 5 1025.6 - 0.0
20/06:00pm 6.3 3.1 3.1 80 1.4 E 9 9 5 5 1025.3 1026.2 0.0
20/05:30pm 6.4 3.1 2.7 77 1.6 SE 9 11 5 6 1025.0 - 0.0
20/05:00pm 8.0 4.8 3.1 71 2.2 SE 9 13 5 7 1025.0 1025.9 0.0
20/04:30pm 8.9 5.7 3.1 67 2.6 SE 9 15 5 8 1024.9 - 0.0
20/04:00pm 9.7 6.8 2.8 62 3.1 S 7 9 4 5 1025.0 1025.9 0.0
20/03:30pm 9.8 6.2 2.9 62 3.1 SSE 11 13 6 7 1025.0 - 0.0
20/03:00pm 9.9 5.9 3.0 62 3.1 SSW 13 19 7 10 1025.0 1025.9 0.0
20/02:30pm 10.2 5.6 3.5 63 3.0 S 17 24 9 13 1025.0 - 0.0
20/02:00pm 10.3 5.6 3.3 62 3.2 S 17 26 9 14 1025.0 1025.9 0.0
20/01:30pm 10.5 5.8 3.1 60 3.3 S 17 24 9 13 1025.1 - 0.0
20/01:00pm 10.2 4.6 3.5 63 3.0 SSW 22 28 12 15 1025.1 1026.0 0.0
20/12:30pm 9.7 4.1 3.7 66 2.7 S 22 30 12 16 1025.4 - 0.0
20/12:00pm 9.4 4.2 3.4 66 2.7 S 20 28 11 15 1025.8 1026.7 0.0
20/11:30am 9.1 2.9 2.4 63 2.9 S 24 32 13 17 1026.0 - 0.0
20/11:00am 9.0 3.4 3.6 69 2.4 S 22 30 12 16 1026.4 1027.3 0.0
20/10:30am 8.0 2.6 2.3 67 2.5 S 20 26 11 14 1026.4 - 0.0
20/10:00am 6.8 2.1 1.1 67 2.4 SSW 15 20 8 11 1026.5 1027.4 0.0
20/09:30am 5.5 0.8 0.9 72 1.9 SW 15 19 8 10 1026.4 - 0.0
20/09:00am 4.6 0.2 0.4 74 1.7 WSW 13 15 7 8 1026.3 1027.2 0.0
20/08:30am 3.6 -1.7 -0.4 75 1.6 W 17 20 9 11 1026.0 - 0.0
20/08:00am 2.6 -1.6 -0.7 79 1.2 WSW 11 13 6 7 1025.6 1026.5 0.0
20/07:30am 2.4 -1.4 -0.5 81 1.1 SW 9 13 5 7 1025.3 - 0.0
20/07:00am 1.6 -3.1 -1.5 80 1.1 WSW 13 17 7 9 1025.0 1025.9 0.0
20/06:30am 1.1 -3.6 -1.5 83 1.0 WSW 13 19 7 10 1024.7 - 0.0
20/06:00am 1.1 -4.0 -2.0 80 1.2 WSW 15 19 8 10 1024.3 1025.1 0.0
20/05:30am 2.0 -3.4 -1.1 80 1.2 WSW 17 20 9 11 1024.0 - 0.0
20/05:00am 1.8 -3.6 -1.1 81 1.1 WSW 17 19 9 10 1023.9 1024.8 0.0
20/04:30am 2.3 -2.7 -1.0 79 1.2 WSW 15 17 8 9 1024.0 - 0.0
20/04:00am 2.8 -1.4 -1.0 76 1.4 WSW 11 15 6 8 1024.2 1025.0 0.0
20/03:30am 3.5 -1.4 -0.5 75 1.5 WSW 15 17 8 9 1024.3 - 0.0
20/03:00am 3.7 -1.6 -0.5 74 1.6 WSW 17 22 9 12 1024.4 1025.2 0.0
20/02:30am 3.6 -1.7 -0.4 75 1.6 WNW 17 20 9 11 1024.0 - 0.0
20/02:00am 3.2 -1.7 -0.6 76 1.5 W 15 19 8 10 1024.2 1025.0 0.0
20/01:30am 4.6 -1.0 0.0 72 1.8 SSW 19 22 10 12 1023.8 - 0.0
20/01:00am 5.0 -1.6 -0.2 69 2.0 S 24 30 13 16 1023.8 1024.7 0.0
20/12:30am 3.2 -1.4 -1.2 73 1.7 SW 13 17 7 9 1024.2 - 0.0
20/12:00am 3.1 -1.2 -1.3 73 1.6 SW 11 13 6 7 1024.3 1025.1 0.0
 
Date/Time
EST
Temp
°C
App
Temp
°C
Dew
Point
Rel
Hum
%
Delta-T
°C
Wind Press
QNH
hPa
Press
MSL
hPa
Rain
since 9 am
mm
Dir
 
Spd
km/h
Gust
km/h
Spd
kts
Gust
kts
19/11:30pm 4.2 0.8 -0.6 71 1.9 WSW 7 11 4 6 1024.4 - 0.0
19/11:00pm 3.7 -0.1 -1.1 71 1.8 W 9 11 5 6 1024.5 1025.4 0.0
19/10:30pm 4.1 -0.5 -1.3 68 2.1 WSW 13 17 7 9 1024.6 - 0.0
19/10:00pm 6.0 0.3 -0.7 62 2.6 SSW 19 30 10 16 1024.7 1025.6 0.0
19/09:30pm 6.5 0.2 -0.7 60 2.9 SSW 22 32 12 17 1024.7 - 0.0

Other Formats:

Comma delimited format used in spreadsheet applications
http://www.bom.gov.au/fwo/IDN60801/IDN60801.94746.axf

JavaScript Object Notation format (JSON) in row-major order
http://www.bom.gov.au/fwo/IDN60801/IDN60801.94746.json